Nearby METAR Reports

 

KVTA - Newark, Ohio, USA
Distance from station: SE 2mi, 3km
Updated: 12/12/2017 4:54am
Overcast
Overcast
 Wind from WNW
Wind: WNW 9 mph , 15 km/h
Temperature: 34°F , 1°C
Wind Chill: 27°F , -3°C
Dew Point: 28°F , -2°C
Humidity: 81%
Barometer: 29.69 inHg , 1005.4 hPa
Clouds: Overcast
Visibility: 8 miles , 13 km
Cloud details: Overcast 1400 ft
2017/12/12 09:54 KVTA 120954Z AUTO 30008KT 8SM OVC014 01/M02 A2969 RMK AO2 SLP061 T00111022
K4I3 - Mt Vernon/Knox, Ohio, USA
Distance from station: N 21mi, 33km
Updated: 12/12/2017 4:55am
Mist, Overcast
Mist, Overcast
 Wind from WNW
Wind: WNW 20 mph , 31 km/h, Gust: 25 mph , 41 km/h
Temperature: 32°F , 0°C
Wind Chill: 20°F , -7°C
Dew Point: 30°F , -1°C
Humidity: 93%
Barometer: 29.68 inHg , 1005.1 hPa
Summary: Mist
Clouds: Overcast
Visibility: 4 miles , 6 km
Cloud details: Overcast 800 ft
2017/12/12 09:55 K4I3 120955Z AUTO 30017G22KT 4SM BR OVC008 M00/M01 A2968 RMK AO2
 
KCMH - Columbus, Ohio, USA
Distance from station: W 21mi, 34km
Updated: 12/12/2017 4:51am
Light snow, Mist, Overcast
Light snow, Mist, Overcast
 Wind from WNW
Wind: WNW 17 mph , 28 km/h, Gust: 25 mph , 41 km/h
Temperature: 34°F , 1°C
Wind Chill: 23°F , -5°C
Dew Point: 30°F , -1°C
Humidity: 87%
Barometer: 29.72 inHg , 1006.4 hPa
Summary: Light snow, Mist
Clouds: Overcast
Visibility: 5 miles , 8 km
Cloud details: Overcast 1200 ft
2017/12/12 09:51 KCMH 120951Z 30015G22KT 5SM -SN BR OVC012 01/M01 A2972 RMK AO2 PK WND 30026/0917 SLP068 P0000 T00111011
KLHQ - Lancaster, Ohio, USA
Distance from station: SSW 22mi, 36km
Updated: 12/12/2017 4:53am
Overcast
Overcast
 Wind from WNW
Wind: WNW 9 mph , 15 km/h
Temperature: 36°F , 2°C
Wind Chill: 29°F , -2°C
Dew Point: 28°F , -2°C
Humidity: 75%
Barometer: 29.72 inHg , 1006.4 hPa
Clouds: Overcast
Visibility: 8 miles , 13 km
Cloud details: Overcast 1800 ft
2017/12/12 09:53 KLHQ 120953Z AUTO 29008KT 8SM OVC018 02/M02 A2972 RMK AO2 SLP070 T00171017
 
KLCK - Rickenbacker Ang, Ohio, USA
Distance from station: SW 27mi, 44km
Updated: 12/12/2017 4:55am
Overcast
Overcast
 Wind from WNW
Wind: WNW 14 mph , 22 km/h, Gust: 25 mph , 41 km/h
Temperature: 34°F , 1°C
Wind Chill: 25°F , -4°C
Dew Point: 30°F , -1°C
Humidity: 87%
Barometer: 29.74 inHg , 1007.1 hPa
Clouds: Overcast
Visibility: 7 miles , 11 km
Cloud details: Overcast 1200 ft
2017/12/12 09:55 KLCK 120955Z AUTO 30012G22KT 7SM OVC012 01/M01 A2974 RMK AO2 T00061011
KOSU - Columbus/St Univ, Ohio, USA
Distance from station: W 32mi, 51km
Updated: 12/12/2017 4:53am
Mist, Overcast
Mist, Overcast
 Wind from WNW
Wind: WNW 14 mph , 22 km/h, Gust: 24 mph , 39 km/h
Temperature: 32°F , 0°C
Wind Chill: 22°F , -6°C
Dew Point: 30°F , -1°C
Humidity: 93%
Barometer: 29.72 inHg , 1006.4 hPa
Summary: Mist
Clouds: Overcast
Visibility: 4 miles , 6 km
Cloud details: Overcast 900 ft
2017/12/12 09:53 KOSU 120953Z 29012G21KT 4SM BR OVC009 00/M01 A2972 RMK AO2 CIG 007V011 SLP071 T00001006
 
KZZV - Zanesville, Ohio, USA
Distance from station: E 32mi, 51km
Updated: 12/12/2017 4:53am
Overcast
Overcast
 Wind from WNW
Wind: WNW 13 mph , 20 km/h, Gust: 21 mph , 33 km/h
Temperature: 37°F , 3°C
Wind Chill: 29°F , -2°C
Dew Point: 28°F , -2°C
Humidity: 70%
Barometer: 29.66 inHg , 1004.4 hPa
Clouds: Overcast
Visibility: 10 miles , 16 km
Cloud details: Overcast 2400 ft
2017/12/12 09:53 KZZV 120953Z AUTO 30011G18KT 10SM OVC024 03/M02 A2966 RMK AO2 SLP050 T00281022
KTZR - Columbus/Bolton, Ohio, USA
Distance from station: WSW 36mi, 57km
Updated: 12/12/2017 4:55am
Mist, Overcast
Mist, Overcast
 Wind from WNW
Wind: WNW 14 mph , 22 km/h, Gust: 20 mph , 31 km/h
Temperature: 32°F , 0°C
Wind Chill: 22°F , -6°C
Dew Point: 30°F , -1°C
Humidity: 93%
Barometer: 29.73 inHg , 1006.8 hPa
Summary: Mist
Clouds: Overcast
Visibility: 4 miles , 6 km
Cloud details: Overcast 800 ft
2017/12/12 09:55 KTZR 120955Z AUTO 30012G17KT 4SM BR OVC008 00/M01 A2973 RMK AO2 T00021009
 
KDLZ - Delaware, Ohio, USA
Distance from station: WNW 37mi, 60km
Updated: 12/12/2017 4:55am
Overcast
Overcast
 Wind from WNW
Wind: WNW 14 mph , 22 km/h, Gust: 21 mph , 33 km/h
Temperature: 32°F , 0°C
Wind Chill: 22°F , -6°C
Dew Point: 32°F , 0°C
Humidity: 100%
Barometer: 29.72 inHg , 1006.4 hPa
Clouds: Overcast
Visibility: 3 miles , 5 km
Cloud details: Overcast 500 ft
2017/12/12 09:55 KDLZ 120955Z AUTO 29012G18KT 3SM UP OVC005 00/00 A2972 RMK AO2
KMRT - Marysville, Ohio, USA
Distance from station: WNW 47mi, 76km
Updated: 12/12/2017 4:55am
Overcast
Overcast
 Wind from NW
Wind: NW 16 mph , 26 km/h, Gust: 21 mph , 33 km/h
Temperature: 32°F , 0°C
Wind Chill: 21°F , -6°C
Dew Point: 30°F , -1°C
Humidity: 93%
Barometer: 29.73 inHg , 1006.8 hPa
Clouds: Overcast
Visibility: 5 miles , 8 km
Cloud details: Overcast 700 ft
2017/12/12 09:55 KMRT 120955Z AUTO 32014G18KT 5SM OVC007 00/M01 A2973 RMK AO2 T00001010
 
KMNN - Marion, Ohio, USA
Distance from station: NW 50mi, 81km
Updated: 12/12/2017 2:53am
NOT Current
Light snow, Mist, Overcast
Light snow, Mist, Overcast
 Wind from WNW
Wind: WNW 13 mph , 20 km/h
Temperature: 30°F , -1°C
Wind Chill: 20°F , -7°C
Dew Point: 27°F , -3°C
Humidity: 86%
Barometer: 29.67 inHg , 1004.7 hPa
Summary: Light snow, Mist
Clouds: Overcast
Visibility: 3 miles , 5 km
Cloud details: Overcast 1000 ft
2017/12/12 07:53 KMNN 120753Z AUTO 30011KT 3SM -SN BR OVC010 M01/M03 A2967 RMK AO2 SNB07 CIG 009V013 SLP058 P0000 T10061028 $